createdAt,value
2022-10-03T00:01:41.416Z,10.07
2022-10-03T00:04:39.029Z,9.57
2022-10-03T00:07:25.004Z,9.60
2022-10-03T00:10:01.598Z,8.93
2022-10-03T00:12:50.521Z,8.80
2022-10-03T00:15:33.055Z,9.40
2022-10-03T00:18:13.197Z,8.37
2022-10-03T00:20:46.356Z,8.30
2022-10-03T00:23:35.981Z,8.07
2022-10-03T00:26:55.147Z,7.73
2022-10-03T00:29:45.227Z,6.83
2022-10-03T00:32:35.889Z,7.93
2022-10-03T00:35:12.371Z,7.17
2022-10-03T00:38:07.898Z,6.90
2022-10-03T00:41:02.880Z,8.13
2022-10-03T00:43:40.030Z,7.37
2022-10-03T00:46:22.297Z,7.03
2022-10-03T00:49:04.731Z,6.60
2022-10-03T00:51:54.886Z,7.27
2022-10-03T00:54:39.955Z,6.80
2022-10-03T00:57:23.915Z,5.97
2022-10-03T01:00:10.077Z,6.30
2022-10-03T01:02:40.157Z,5.87
2022-10-03T01:05:28.406Z,6.37
2022-10-03T01:08:34.551Z,6.53
2022-10-03T01:11:16.753Z,7.00
2022-10-03T01:14:09.735Z,7.17
2022-10-03T01:17:11.013Z,6.50
2022-10-03T01:20:09.743Z,5.93
2022-10-03T01:22:55.700Z,6.80
2022-10-03T01:25:43.976Z,6.73
2022-10-03T01:28:57.661Z,6.67
2022-10-03T01:31:34.480Z,6.73
2022-10-03T01:34:20.926Z,7.37
2022-10-03T01:37:06.336Z,6.60
2022-10-03T01:40:04.589Z,7.67
2022-10-03T01:42:53.235Z,6.80
2022-10-03T01:45:46.613Z,6.80
2022-10-03T01:48:27.030Z,6.17
2022-10-03T01:51:05.906Z,6.80
2022-10-03T01:53:50.275Z,7.20
2022-10-03T01:56:39.536Z,6.93
2022-10-03T01:59:20.908Z,6.43
2022-10-03T02:01:59.906Z,6.60
2022-10-03T02:04:29.952Z,6.03
2022-10-03T02:07:07.679Z,7.30
2022-10-03T02:09:52.555Z,6.43
2022-10-03T02:12:23.107Z,6.90
2022-10-03T02:15:00.256Z,6.80
2022-10-03T02:17:46.363Z,7.00
2022-10-03T02:20:55.687Z,6.77
2022-10-03T02:23:45.505Z,7.07
2022-10-03T02:26:58.591Z,7.07
2022-10-03T02:29:46.571Z,6.77
2022-10-03T02:32:50.584Z,6.80
2022-10-03T02:35:43.124Z,7.07
2022-10-03T02:38:25.769Z,6.80
2022-10-03T02:40:58.398Z,6.70
2022-10-03T02:43:52.714Z,8.07
2022-10-03T02:46:59.182Z,6.40
2022-10-03T02:50:00.079Z,7.10
2022-10-03T02:52:27.163Z,6.30
2022-10-03T02:54:54.952Z,6.70
2022-10-03T02:58:02.255Z,6.60
2022-10-03T03:00:32.400Z,6.20
2022-10-03T03:03:19.480Z,6.23
2022-10-03T03:06:18.114Z,6.57
2022-10-03T03:09:03.323Z,5.90
2022-10-03T03:11:56.365Z,6.20
2022-10-03T03:15:01.635Z,6.17
2022-10-03T03:17:34.588Z,5.93
2022-10-03T03:20:41.354Z,6.07
2022-10-03T03:23:19.711Z,6.27
2022-10-03T03:26:23.516Z,6.00
2022-10-03T03:29:12.977Z,5.90
2022-10-03T03:32:03.378Z,5.93
2022-10-03T03:34:53.240Z,5.40
2022-10-03T03:37:53.479Z,6.00
2022-10-03T03:40:38.429Z,5.40
2022-10-03T03:43:11.472Z,5.40
2022-10-03T03:46:18.968Z,5.50
2022-10-03T03:49:29.625Z,5.13
2022-10-03T03:52:27.607Z,5.30
2022-10-03T03:55:16.131Z,6.47
2022-10-03T03:57:49.947Z,6.30
2022-10-03T04:00:23.582Z,6.77
2022-10-03T04:03:09.422Z,5.70
2022-10-03T04:05:42.721Z,5.97
2022-10-03T04:08:28.742Z,5.43
2022-10-03T04:11:07.886Z,5.80
2022-10-03T04:14:31.578Z,5.50
2022-10-03T04:17:44.632Z,5.13
2022-10-03T04:20:33.642Z,4.63
2022-10-03T04:23:28.042Z,4.87
2022-10-03T04:26:11.132Z,5.20
2022-10-03T04:28:54.656Z,4.60
2022-10-03T04:31:22.103Z,4.60
2022-10-03T04:34:13.630Z,4.03
2022-10-03T04:37:08.558Z,4.20
2022-10-03T04:40:12.687Z,4.37
2022-10-03T04:43:10.151Z,4.10
2022-10-03T04:45:46.331Z,4.27
2022-10-03T04:48:29.109Z,4.30
2022-10-03T04:51:24.442Z,3.90
2022-10-03T04:54:16.311Z,4.97
2022-10-03T04:56:59.584Z,4.00
2022-10-03T05:00:19.076Z,4.33
2022-10-03T05:02:54.028Z,4.10
2022-10-03T05:05:47.639Z,4.30
2022-10-03T05:09:07.088Z,4.70
2022-10-03T05:11:58.018Z,5.00
2022-10-03T05:14:50.030Z,4.43
2022-10-03T05:17:58.855Z,4.07
2022-10-03T05:20:29.437Z,4.10
2022-10-03T05:22:56.479Z,4.00
2022-10-03T05:25:47.709Z,3.90
2022-10-03T05:28:40.549Z,4.43
2022-10-03T05:31:38.840Z,4.17
2022-10-03T05:34:23.914Z,3.90
2022-10-03T05:37:12.878Z,4.07
2022-10-03T05:39:42.674Z,4.70
2022-10-03T05:42:36.874Z,4.70
2022-10-03T05:45:12.943Z,4.60
2022-10-03T05:47:50.250Z,4.80
2022-10-03T05:50:34.065Z,4.93
2022-10-03T05:53:13.760Z,4.10
2022-10-03T05:55:46.687Z,4.30
2022-10-03T05:58:44.470Z,4.53
2022-10-03T06:01:26.685Z,4.20
2022-10-03T06:03:53.912Z,4.33
2022-10-03T06:06:33.167Z,3.70
2022-10-03T06:09:18.664Z,3.93
2022-10-03T06:11:57.831Z,4.37
2022-10-03T06:14:43.823Z,4.17
2022-10-03T06:17:48.546Z,3.87
2022-10-03T06:20:33.679Z,4.30
2022-10-03T06:23:27.862Z,4.60
2022-10-03T06:26:01.382Z,5.27
2022-10-03T06:29:21.979Z,3.87
2022-10-03T06:32:36.509Z,4.40
2022-10-03T06:35:19.245Z,4.63
2022-10-03T06:38:04.957Z,4.07
2022-10-03T06:40:41.043Z,3.83
2022-10-03T06:43:34.676Z,4.13
2022-10-03T06:46:17.105Z,4.77
2022-10-03T06:48:55.613Z,4.00
2022-10-03T06:51:59.162Z,4.23
2022-10-03T06:55:04.682Z,3.70
2022-10-03T06:58:05.919Z,3.50
2022-10-03T07:01:09.669Z,4.93
2022-10-03T07:04:05.969Z,6.77
2022-10-03T07:06:36.007Z,5.10
2022-10-03T07:09:40.047Z,5.27
2022-10-03T07:12:33.817Z,4.03
2022-10-03T07:19:03.078Z,4.50
2022-10-03T07:21:40.647Z,3.43
2022-10-03T07:24:35.208Z,3.40
2022-10-03T07:27:10.662Z,2.97
2022-10-03T07:30:10.839Z,3.30
2022-10-03T07:32:56.604Z,3.33
2022-10-03T07:36:19.640Z,3.20
2022-10-03T07:39:23.921Z,3.57
2022-10-03T07:42:26.120Z,3.07
2022-10-03T07:45:20.650Z,3.28
2022-10-03T07:47:53.680Z,3.20
2022-10-03T07:51:15.171Z,3.15
2022-10-03T07:53:44.998Z,3.10
2022-10-03T07:56:50.638Z,3.10
2022-10-03T07:59:38.376Z,2.80
2022-10-03T08:02:14.673Z,3.00
2022-10-03T08:04:44.813Z,3.30
2022-10-03T08:07:21.359Z,3.08
2022-10-03T08:10:18.714Z,2.78
2022-10-03T08:13:07.301Z,2.88
2022-10-03T08:16:02.400Z,2.83
2022-10-03T08:18:32.275Z,3.00
2022-10-03T08:21:01.822Z,2.90
2022-10-03T08:23:32.093Z,2.83
2022-10-03T08:26:31.139Z,2.55
2022-10-03T08:29:13.100Z,2.58
2022-10-03T08:32:03.177Z,2.50
2022-10-03T08:34:55.295Z,2.40
2022-10-03T08:37:31.590Z,2.60
2022-10-03T08:40:30.715Z,2.67
2022-10-03T08:43:09.410Z,2.85
2022-10-03T08:45:42.214Z,2.88
2022-10-03T08:48:27.981Z,2.80
2022-10-03T08:51:19.676Z,3.20
2022-10-03T08:53:49.502Z,4.50
2022-10-03T08:56:24.515Z,4.05
2022-10-03T08:58:54.406Z,4.22
2022-10-03T09:01:40.601Z,4.00
2022-10-03T09:04:29.481Z,4.35
2022-10-03T09:07:27.702Z,4.85
2022-10-03T09:09:57.557Z,4.47
2022-10-03T09:13:02.784Z,4.78
2022-10-03T09:15:53.645Z,4.30
2022-10-03T09:18:23.568Z,4.22
2022-10-03T09:21:37.409Z,4.75
2022-10-03T09:24:29.470Z,3.92
2022-10-03T09:27:15.137Z,4.07
2022-10-03T09:30:01.931Z,4.10
2022-10-03T09:33:02.702Z,4.63
2022-10-03T09:35:54.327Z,4.72
2022-10-03T09:38:46.197Z,5.38
2022-10-03T09:41:25.715Z,4.88
2022-10-03T09:43:58.908Z,5.18
2022-10-03T09:47:07.454Z,5.25
2022-10-03T09:50:04.369Z,5.10
2022-10-03T09:53:05.111Z,5.20
2022-10-03T09:56:01.499Z,5.40
2022-10-03T09:59:06.142Z,5.50
2022-10-03T10:01:54.708Z,5.30
2022-10-03T10:04:55.651Z,5.20
2022-10-03T10:07:50.678Z,5.57
2022-10-03T10:10:36.407Z,5.80
2022-10-03T10:13:12.569Z,5.00
2022-10-03T10:15:52.033Z,5.45
2022-10-03T10:18:42.483Z,5.40
2022-10-03T10:21:43.573Z,6.28
2022-10-03T10:24:22.782Z,6.00
2022-10-03T10:26:54.115Z,5.43
2022-10-03T10:29:36.561Z,5.55
2022-10-03T10:32:21.942Z,5.85
2022-10-03T10:35:26.435Z,5.20
2022-10-03T10:38:26.128Z,5.60
2022-10-03T10:41:05.384Z,5.35
2022-10-03T10:43:57.493Z,5.60
2022-10-03T10:46:57.684Z,5.70
2022-10-03T10:49:59.097Z,5.60
2022-10-03T10:52:47.282Z,5.55
2022-10-03T10:55:42.827Z,5.40
2022-10-03T10:58:48.106Z,5.75
2022-10-03T11:01:46.229Z,5.20
2022-10-03T11:04:50.451Z,5.45
2022-10-03T11:07:39.170Z,5.50
2022-10-03T11:10:35.533Z,5.72
2022-10-03T11:13:35.542Z,6.35
2022-10-03T11:16:21.738Z,7.35
2022-10-03T11:19:04.153Z,7.82
2022-10-03T11:21:43.451Z,8.00
2022-10-03T11:24:27.761Z,6.53
2022-10-03T11:27:14.036Z,6.10
2022-10-03T11:30:03.184Z,7.07
2022-10-03T11:32:45.170Z,6.70
2022-10-03T11:35:18.362Z,6.80
2022-10-03T11:37:55.903Z,6.78
2022-10-03T11:40:50.991Z,6.40
2022-10-03T11:43:36.721Z,7.78
2022-10-03T11:46:09.979Z,7.03
2022-10-03T11:49:07.919Z,7.10
2022-10-03T11:52:23.034Z,6.82
2022-10-03T11:54:58.297Z,6.45
2022-10-03T11:57:31.750Z,6.43
2022-10-03T12:00:14.462Z,6.22
2022-10-03T12:03:20.492Z,6.68
2022-10-03T12:06:32.364Z,7.18
2022-10-03T12:09:25.818Z,5.97
2022-10-03T12:12:12.547Z,6.25
2022-10-03T12:14:46.958Z,6.03
2022-10-03T12:17:18.223Z,6.20
2022-10-03T12:20:17.813Z,6.32
2022-10-03T12:22:52.834Z,6.05
2022-10-03T12:25:35.028Z,6.45
2022-10-03T12:28:25.804Z,5.75
2022-10-03T12:31:07.420Z,5.88
2022-10-03T12:33:48.098Z,5.82
2022-10-03T12:36:48.422Z,5.50
2022-10-03T12:39:35.156Z,5.60
2022-10-03T12:42:23.348Z,5.50
2022-10-03T12:45:27.081Z,5.80
2022-10-03T12:48:16.441Z,5.78
2022-10-03T12:50:55.270Z,6.25
2022-10-03T12:53:28.395Z,6.43
2022-10-03T12:56:22.850Z,5.60
2022-10-03T12:59:08.572Z,6.18
2022-10-03T13:01:56.219Z,7.00
2022-10-03T13:04:30.153Z,5.80
2022-10-03T13:07:22.155Z,5.70
2022-10-03T13:10:16.670Z,6.05
2022-10-03T13:13:16.894Z,5.15
2022-10-03T13:16:09.028Z,5.45
2022-10-03T13:18:45.422Z,5.60
2022-10-03T13:21:49.606Z,5.55
2022-10-03T13:24:42.722Z,5.32
2022-10-03T13:27:18.886Z,5.38
2022-10-03T13:29:59.657Z,5.18
2022-10-03T13:32:38.980Z,5.20
2022-10-03T13:35:42.409Z,5.15
2022-10-03T13:38:32.006Z,5.20
2022-10-03T13:41:26.623Z,4.85
2022-10-03T13:44:05.168Z,5.63
2022-10-03T13:46:45.246Z,5.38
2022-10-03T13:49:35.927Z,4.85
2022-10-03T13:52:18.415Z,4.43
2022-10-03T13:55:03.658Z,4.18
2022-10-03T13:57:42.374Z,4.30
2022-10-03T14:00:15.276Z,4.45
2022-10-03T14:03:15.535Z,4.45
2022-10-03T14:05:57.655Z,3.80
2022-10-03T14:08:28.303Z,4.20
2022-10-03T14:11:16.244Z,4.43
2022-10-03T14:14:08.577Z,4.30
2022-10-03T14:16:55.486Z,4.32
2022-10-03T14:19:57.428Z,4.35
2022-10-03T14:22:50.606Z,4.60
2022-10-03T14:25:32.808Z,4.30
2022-10-03T14:28:16.839Z,4.10
2022-10-03T14:31:21.090Z,3.90
2022-10-03T14:34:20.159Z,3.28
2022-10-03T14:37:09.378Z,3.22
2022-10-03T14:39:45.559Z,3.10
2022-10-03T14:42:19.093Z,2.90
2022-10-03T14:44:54.575Z,2.85
2022-10-03T14:47:23.986Z,3.00
2022-10-03T14:49:59.522Z,2.83
2022-10-03T14:52:42.981Z,2.83
2022-10-03T14:55:22.348Z,2.92
2022-10-03T14:58:10.652Z,3.00
2022-10-03T15:00:47.835Z,3.22
2022-10-03T15:03:17.777Z,2.42
2022-10-03T15:05:56.600Z,2.83
2022-10-03T15:08:27.274Z,2.58
2022-10-03T15:10:55.970Z,2.60
2022-10-03T15:13:24.701Z,3.10
2022-10-03T15:15:54.391Z,2.75
2022-10-03T15:18:24.591Z,2.72
2022-10-03T15:20:55.529Z,2.60
2022-10-03T15:23:28.911Z,2.72
2022-10-03T15:25:57.577Z,2.53
2022-10-03T15:28:46.295Z,2.70
2022-10-03T15:31:37.809Z,2.85
2022-10-03T15:34:15.714Z,2.78
2022-10-03T15:36:48.872Z,2.83
2022-10-03T15:39:22.185Z,2.70
2022-10-03T15:42:15.302Z,3.15
2022-10-03T15:45:07.227Z,2.85
2022-10-03T15:47:45.329Z,2.80
2022-10-03T15:50:34.625Z,2.80
2022-10-03T15:53:35.571Z,3.20
2022-10-03T15:56:19.087Z,2.78
2022-10-03T15:58:55.558Z,2.95
2022-10-03T16:01:35.259Z,2.67
2022-10-03T16:04:12.758Z,2.53
2022-10-03T16:06:49.555Z,2.95
2022-10-03T16:09:22.191Z,2.72
2022-10-03T16:11:58.546Z,2.80
2022-10-03T16:14:41.566Z,2.83
2022-10-03T16:17:46.555Z,2.50
2022-10-03T16:20:30.040Z,2.65
2022-10-03T16:22:59.719Z,2.72
2022-10-03T16:25:53.397Z,2.80
2022-10-03T16:28:26.060Z,2.72
2022-10-03T16:31:05.889Z,2.38
2022-10-03T16:33:40.259Z,2.78
2022-10-03T16:36:16.873Z,2.50
2022-10-03T16:38:52.242Z,2.80
2022-10-03T16:41:31.912Z,2.65
2022-10-03T16:44:02.046Z,3.00
2022-10-03T16:46:34.032Z,3.00
2022-10-03T16:49:22.150Z,3.30
2022-10-03T16:52:10.103Z,2.60
2022-10-03T16:54:41.086Z,2.90
2022-10-03T16:57:40.187Z,3.00
2022-10-03T17:00:16.071Z,3.43
2022-10-03T17:02:43.592Z,3.47
2022-10-03T17:05:15.178Z,3.40
2022-10-03T17:07:48.521Z,3.23
2022-10-03T17:10:28.794Z,3.43
2022-10-03T17:13:03.602Z,3.40
2022-10-03T17:15:35.301Z,3.13
2022-10-03T17:18:23.415Z,3.40
2022-10-03T17:21:19.276Z,3.30
2022-10-03T17:24:02.441Z,3.80
2022-10-03T17:26:39.276Z,3.47
2022-10-03T17:29:06.379Z,3.90
2022-10-03T17:31:43.402Z,3.70
2022-10-03T17:34:34.046Z,3.77
2022-10-03T17:37:24.271Z,3.93
2022-10-03T17:40:19.185Z,3.67
2022-10-03T17:43:02.410Z,3.87
2022-10-03T17:46:18.608Z,3.70
2022-10-03T17:49:09.019Z,4.20
2022-10-03T17:51:44.839Z,3.90
2022-10-03T17:54:33.930Z,3.90
2022-10-03T17:57:27.956Z,4.10
2022-10-03T18:00:00.915Z,4.30
2022-10-03T18:03:13.806Z,4.40
2022-10-03T18:05:46.413Z,4.43
2022-10-03T18:08:19.255Z,4.47
2022-10-03T18:10:52.512Z,4.20
2022-10-03T18:13:29.499Z,4.77
2022-10-03T18:16:25.475Z,5.00
2022-10-03T18:19:23.751Z,4.63
2022-10-03T18:22:03.321Z,4.53
2022-10-03T18:24:30.453Z,4.37
2022-10-03T18:27:42.854Z,4.23
2022-10-03T18:30:25.092Z,4.87
2022-10-03T18:32:54.541Z,3.97
2022-10-03T18:35:26.658Z,4.67
2022-10-03T18:38:03.233Z,4.40
2022-10-03T18:40:42.619Z,4.90
2022-10-03T18:43:27.773Z,4.73
2022-10-03T18:46:04.098Z,4.50
2022-10-03T18:49:15.845Z,5.00
2022-10-03T18:51:44.795Z,5.00
2022-10-03T18:54:18.354Z,5.20
2022-10-03T18:56:59.485Z,4.80
2022-10-03T18:59:37.952Z,5.20
2022-10-03T19:02:06.188Z,4.67
2022-10-03T19:04:46.217Z,4.40
2022-10-03T19:07:26.661Z,4.90
2022-10-03T19:10:18.857Z,4.67
2022-10-03T19:13:10.146Z,5.43
2022-10-03T19:15:57.212Z,4.80
2022-10-03T19:18:57.415Z,4.17
2022-10-03T19:21:25.297Z,5.00
2022-10-03T19:24:02.937Z,4.70
2022-10-03T19:26:36.266Z,4.77
2022-10-03T19:29:12.872Z,4.17
2022-10-03T19:32:00.438Z,4.90
2022-10-03T19:34:37.882Z,5.20
2022-10-03T19:37:31.286Z,4.90
2022-10-03T19:39:59.236Z,5.10
2022-10-03T19:42:48.456Z,5.50
2022-10-03T19:45:17.329Z,5.50
2022-10-03T19:47:58.846Z,6.10
2022-10-03T19:50:30.109Z,5.30
2022-10-03T19:52:58.209Z,5.60
2022-10-03T19:55:33.553Z,5.03
2022-10-03T19:58:04.286Z,5.33
2022-10-03T20:00:36.899Z,5.07
2022-10-03T20:03:13.163Z,5.77
2022-10-03T20:06:02.613Z,5.30
2022-10-03T20:08:29.669Z,5.07
2022-10-03T20:11:35.127Z,5.27
2022-10-03T20:14:05.676Z,5.57
2022-10-03T20:16:40.676Z,5.47
2022-10-03T20:19:12.351Z,5.37
2022-10-03T20:21:40.110Z,5.30
2022-10-03T20:24:26.940Z,5.17
2022-10-03T20:27:23.418Z,5.47
2022-10-03T20:30:02.602Z,4.83
2022-10-03T20:32:31.471Z,4.90
2022-10-03T20:35:00.377Z,4.97
2022-10-03T20:37:49.266Z,5.23
2022-10-03T20:40:30.173Z,5.30
2022-10-03T20:43:27.834Z,5.13
2022-10-03T20:46:07.773Z,4.93
2022-10-03T20:48:43.073Z,5.37
2022-10-03T20:51:23.642Z,5.40
2022-10-03T20:53:53.363Z,5.50
2022-10-03T20:56:29.029Z,5.60
2022-10-03T20:58:58.482Z,5.77
2022-10-03T21:01:31.558Z,5.83
2022-10-03T21:04:43.209Z,5.00
2022-10-03T21:07:16.229Z,13.40
2022-10-03T21:10:02.452Z,5.50
2022-10-03T21:12:52.041Z,4.93
2022-10-03T21:15:46.449Z,4.37
2022-10-03T21:18:31.973Z,4.60
2022-10-03T21:21:05.308Z,5.07
2022-10-03T21:23:38.327Z,5.47
2022-10-03T21:26:08.207Z,4.90
2022-10-03T21:28:38.506Z,5.10
2022-10-03T21:31:14.890Z,5.13
2022-10-03T21:34:12.263Z,4.77
2022-10-03T21:36:50.459Z,5.13
2022-10-03T21:39:47.541Z,5.10
2022-10-03T21:42:26.907Z,5.17
2022-10-03T21:45:41.817Z,4.57
2022-10-03T21:48:31.723Z,4.63
2022-10-03T21:51:01.422Z,4.80
2022-10-03T21:53:41.211Z,4.57
2022-10-03T21:56:14.495Z,4.53
2022-10-03T21:59:06.356Z,4.63
2022-10-03T22:01:46.806Z,4.57
2022-10-03T22:04:21.606Z,4.20
2022-10-03T22:07:15.066Z,3.83
2022-10-03T22:09:51.516Z,4.00
2022-10-03T22:12:18.692Z,3.57
2022-10-03T22:15:09.769Z,3.63
2022-10-03T22:17:43.346Z,3.63
2022-10-03T22:20:26.657Z,3.50
2022-10-03T22:23:12.330Z,3.30
2022-10-03T22:25:48.000Z,3.40
2022-10-03T22:28:17.814Z,3.30
2022-10-03T22:31:12.452Z,3.90
2022-10-03T22:33:45.408Z,3.80
2022-10-03T22:36:13.129Z,3.40
2022-10-03T22:38:41.038Z,3.30
2022-10-03T22:41:15.126Z,3.20
2022-10-03T22:43:43.673Z,3.13
2022-10-03T22:46:15.097Z,2.87
2022-10-03T22:48:48.956Z,3.10
2022-10-03T22:51:18.995Z,2.90
2022-10-03T22:53:54.079Z,2.50
2022-10-03T22:56:45.531Z,2.70
2022-10-03T22:59:32.548Z,2.77
2022-10-03T23:02:07.608Z,2.37
2022-10-03T23:05:09.992Z,2.27
2022-10-03T23:07:57.922Z,2.73
2022-10-03T23:10:47.868Z,2.50
2022-10-03T23:13:39.068Z,2.50
2022-10-03T23:16:44.960Z,2.33
2022-10-03T23:19:23.839Z,2.20
2022-10-03T23:21:53.050Z,2.77
2022-10-03T23:24:23.036Z,2.40
2022-10-03T23:27:24.317Z,2.33
2022-10-03T23:30:14.609Z,2.07
2022-10-03T23:32:47.911Z,2.30
2022-10-03T23:35:31.903Z,2.27
2022-10-03T23:38:00.311Z,2.00
2022-10-03T23:40:47.757Z,2.13
2022-10-03T23:43:38.926Z,2.20
2022-10-03T23:46:15.777Z,2.27
2022-10-03T23:48:49.506Z,2.33
2022-10-03T23:51:28.467Z,2.33
2022-10-03T23:54:04.118Z,2.37
2022-10-03T23:56:38.220Z,2.03
2022-10-03T23:59:05.376Z,2.20
